sensor_id;sensor_type;location;lat;lon;timestamp;temperature;humidity
23377;DHT22;14353;46.070;13.222;2023-08-30T00:00:18;29.00;49.00
23377;DHT22;14353;46.070;13.222;2023-08-30T00:02:44;29.00;49.00
23377;DHT22;14353;46.070;13.222;2023-08-30T00:05:10;29.00;48.90
23377;DHT22;14353;46.070;13.222;2023-08-30T00:07:36;29.00;49.00
23377;DHT22;14353;46.070;13.222;2023-08-30T00:10:02;29.00;49.00
23377;DHT22;14353;46.070;13.222;2023-08-30T00:12:29;29.00;48.90
23377;DHT22;14353;46.070;13.222;2023-08-30T00:14:56;29.00;48.90
23377;DHT22;14353;46.070;13.222;2023-08-30T00:17:22;29.00;48.90
23377;DHT22;14353;46.070;13.222;2023-08-30T00:19:48;29.00;48.90
23377;DHT22;14353;46.070;13.222;2023-08-30T00:22:14;29.00;48.90
23377;DHT22;14353;46.070;13.222;2023-08-30T00:24:40;29.00;48.90
23377;DHT22;14353;46.070;13.222;2023-08-30T00:27:05;29.00;48.90
23377;DHT22;14353;46.070;13.222;2023-08-30T00:29:31;29.00;48.80
23377;DHT22;14353;46.070;13.222;2023-08-30T00:31:57;29.00;48.80
23377;DHT22;14353;46.070;13.222;2023-08-30T00:34:22;29.00;48.80
23377;DHT22;14353;46.070;13.222;2023-08-30T00:36:48;29.00;48.80
23377;DHT22;14353;46.070;13.222;2023-08-30T00:39:14;29.00;48.80
23377;DHT22;14353;46.070;13.222;2023-08-30T00:41:40;29.00;48.80
23377;DHT22;14353;46.070;13.222;2023-08-30T00:44:06;29.00;48.80
23377;DHT22;14353;46.070;13.222;2023-08-30T00:46:33;29.00;48.80
23377;DHT22;14353;46.070;13.222;2023-08-30T00:49:00;28.90;48.70
23377;DHT22;14353;46.070;13.222;2023-08-30T00:51:26;28.90;48.70
23377;DHT22;14353;46.070;13.222;2023-08-30T00:53:54;29.00;48.70
23377;DHT22;14353;46.070;13.222;2023-08-30T00:56:21;29.00;48.70
23377;DHT22;14353;46.070;13.222;2023-08-30T00:58:50;28.90;48.60
23377;DHT22;14353;46.070;13.222;2023-08-30T01:01:16;28.90;48.60
23377;DHT22;14353;46.070;13.222;2023-08-30T01:03:43;28.90;48.60
23377;DHT22;14353;46.070;13.222;2023-08-30T01:06:09;28.90;48.60
23377;DHT22;14353;46.070;13.222;2023-08-30T01:08:36;28.90;48.60
23377;DHT22;14353;46.070;13.222;2023-08-30T01:11:08;28.90;48.60
23377;DHT22;14353;46.070;13.222;2023-08-30T01:13:42;28.90;48.60
23377;DHT22;14353;46.070;13.222;2023-08-30T01:16:10;28.90;48.60
23377;DHT22;14353;46.070;13.222;2023-08-30T01:18:39;28.90;48.60
23377;DHT22;14353;46.070;13.222;2023-08-30T01:21:05;28.90;48.50
23377;DHT22;14353;46.070;13.222;2023-08-30T01:23:58;28.90;48.50
23377;DHT22;14353;46.070;13.222;2023-08-30T01:26:35;28.90;48.60
23377;DHT22;14353;46.070;13.222;2023-08-30T01:29:03;28.90;48.50
23377;DHT22;14353;46.070;13.222;2023-08-30T01:31:33;28.90;48.50
23377;DHT22;14353;46.070;13.222;2023-08-30T01:34:01;28.90;48.50
23377;DHT22;14353;46.070;13.222;2023-08-30T01:36:28;28.90;48.50
23377;DHT22;14353;46.070;13.222;2023-08-30T01:38:56;28.90;48.50
23377;DHT22;14353;46.070;13.222;2023-08-30T01:41:23;28.90;48.50
23377;DHT22;14353;46.070;13.222;2023-08-30T01:43:50;28.90;48.50
23377;DHT22;14353;46.070;13.222;2023-08-30T01:46:18;28.90;48.50
23377;DHT22;14353;46.070;13.222;2023-08-30T01:48:46;28.90;48.50
23377;DHT22;14353;46.070;13.222;2023-08-30T01:51:14;28.80;48.50
23377;DHT22;14353;46.070;13.222;2023-08-30T01:53:44;28.80;48.50
23377;DHT22;14353;46.070;13.222;2023-08-30T01:56:11;28.80;48.50
23377;DHT22;14353;46.070;13.222;2023-08-30T01:58:37;28.90;48.60
23377;DHT22;14353;46.070;13.222;2023-08-30T02:01:02;28.90;48.50
23377;DHT22;14353;46.070;13.222;2023-08-30T02:03:28;28.80;48.50
23377;DHT22;14353;46.070;13.222;2023-08-30T02:06:13;28.80;48.50
23377;DHT22;14353;46.070;13.222;2023-08-30T02:08:59;28.90;48.50
23377;DHT22;14353;46.070;13.222;2023-08-30T02:11:28;28.80;48.50
23377;DHT22;14353;46.070;13.222;2023-08-30T02:13:57;28.90;48.50
23377;DHT22;14353;46.070;13.222;2023-08-30T02:16:25;28.80;48.50
23377;DHT22;14353;46.070;13.222;2023-08-30T02:18:52;28.80;48.50
23377;DHT22;14353;46.070;13.222;2023-08-30T02:21:18;28.80;48.50
23377;DHT22;14353;46.070;13.222;2023-08-30T02:23:48;28.80;48.50
23377;DHT22;14353;46.070;13.222;2023-08-30T02:26:14;28.80;48.50
23377;DHT22;14353;46.070;13.222;2023-08-30T02:28:40;28.80;48.50
23377;DHT22;14353;46.070;13.222;2023-08-30T02:31:06;28.80;48.50
23377;DHT22;14353;46.070;13.222;2023-08-30T02:33:31;28.80;48.60
23377;DHT22;14353;46.070;13.222;2023-08-30T02:35:57;28.80;48.60
23377;DHT22;14353;46.070;13.222;2023-08-30T02:38:23;28.80;48.60
23377;DHT22;14353;46.070;13.222;2023-08-30T02:40:48;28.80;48.60
23377;DHT22;14353;46.070;13.222;2023-08-30T02:43:14;28.80;48.60
23377;DHT22;14353;46.070;13.222;2023-08-30T02:45:40;28.80;48.60
23377;DHT22;14353;46.070;13.222;2023-08-30T02:48:06;28.80;48.60
23377;DHT22;14353;46.070;13.222;2023-08-30T02:50:31;28.80;48.70
23377;DHT22;14353;46.070;13.222;2023-08-30T02:52:57;28.80;48.60
23377;DHT22;14353;46.070;13.222;2023-08-30T02:55:23;28.80;48.60
23377;DHT22;14353;46.070;13.222;2023-08-30T02:57:48;28.80;48.70
23377;DHT22;14353;46.070;13.222;2023-08-30T03:00:14;28.80;48.70
23377;DHT22;14353;46.070;13.222;2023-08-30T03:02:40;28.80;48.70
23377;DHT22;14353;46.070;13.222;2023-08-30T03:05:06;28.80;48.60
23377;DHT22;14353;46.070;13.222;2023-08-30T03:07:32;28.80;48.60
23377;DHT22;14353;46.070;13.222;2023-08-30T03:09:57;28.80;48.60
23377;DHT22;14353;46.070;13.222;2023-08-30T03:12:23;28.80;48.60
23377;DHT22;14353;46.070;13.222;2023-08-30T03:14:49;28.80;48.60
23377;DHT22;14353;46.070;13.222;2023-08-30T03:17:15;28.80;48.60
23377;DHT22;14353;46.070;13.222;2023-08-30T03:19:41;28.70;48.50
23377;DHT22;14353;46.070;13.222;2023-08-30T03:22:06;28.80;48.50
23377;DHT22;14353;46.070;13.222;2023-08-30T03:24:32;28.70;48.40
23377;DHT22;14353;46.070;13.222;2023-08-30T03:26:58;28.70;48.40
23377;DHT22;14353;46.070;13.222;2023-08-30T03:29:25;28.70;48.50
23377;DHT22;14353;46.070;13.222;2023-08-30T03:31:51;28.70;48.40
23377;DHT22;14353;46.070;13.222;2023-08-30T03:34:16;28.70;48.40
23377;DHT22;14353;46.070;13.222;2023-08-30T03:36:42;28.70;48.40
23377;DHT22;14353;46.070;13.222;2023-08-30T03:39:10;28.70;48.30
23377;DHT22;14353;46.070;13.222;2023-08-30T03:41:35;28.70;48.30
23377;DHT22;14353;46.070;13.222;2023-08-30T03:44:01;28.70;48.30
23377;DHT22;14353;46.070;13.222;2023-08-30T03:46:27;28.70;48.30
23377;DHT22;14353;46.070;13.222;2023-08-30T03:48:52;28.70;48.30
23377;DHT22;14353;46.070;13.222;2023-08-30T03:51:18;28.70;48.30
23377;DHT22;14353;46.070;13.222;2023-08-30T03:53:44;28.70;48.30
23377;DHT22;14353;46.070;13.222;2023-08-30T03:56:10;28.70;48.30
23377;DHT22;14353;46.070;13.222;2023-08-30T03:58:35;28.70;48.30
23377;DHT22;14353;46.070;13.222;2023-08-30T04:01:03;28.70;48.30
23377;DHT22;14353;46.070;13.222;2023-08-30T04:03:28;28.70;48.30
23377;DHT22;14353;46.070;13.222;2023-08-30T04:05:57;28.70;48.30
23377;DHT22;14353;46.070;13.222;2023-08-30T04:08:23;28.60;48.30
23377;DHT22;14353;46.070;13.222;2023-08-30T04:10:52;28.70;48.30
23377;DHT22;14353;46.070;13.222;2023-08-30T04:13:18;28.70;48.30
23377;DHT22;14353;46.070;13.222;2023-08-30T04:15:43;28.70;48.30
23377;DHT22;14353;46.070;13.222;2023-08-30T04:18:09;28.60;48.30
23377;DHT22;14353;46.070;13.222;2023-08-30T04:20:35;28.60;48.30
23377;DHT22;14353;46.070;13.222;2023-08-30T04:23:01;28.60;48.40
23377;DHT22;14353;46.070;13.222;2023-08-30T04:25:31;28.60;48.30
23377;DHT22;14353;46.070;13.222;2023-08-30T04:27:57;28.70;48.40
23377;DHT22;14353;46.070;13.222;2023-08-30T04:30:23;28.60;48.40
23377;DHT22;14353;46.070;13.222;2023-08-30T04:32:48;28.60;48.40
23377;DHT22;14353;46.070;13.222;2023-08-30T04:35:14;28.60;48.40
23377;DHT22;14353;46.070;13.222;2023-08-30T04:37:40;28.60;48.40
23377;DHT22;14353;46.070;13.222;2023-08-30T04:40:09;28.60;48.40
23377;DHT22;14353;46.070;13.222;2023-08-30T04:42:35;28.60;48.40
23377;DHT22;14353;46.070;13.222;2023-08-30T04:45:02;28.60;48.50
23377;DHT22;14353;46.070;13.222;2023-08-30T04:47:32;28.60;48.40
23377;DHT22;14353;46.070;13.222;2023-08-30T04:49:58;28.60;48.50
23377;DHT22;14353;46.070;13.222;2023-08-30T04:52:23;28.60;48.50
23377;DHT22;14353;46.070;13.222;2023-08-30T04:54:49;28.60;48.50
23377;DHT22;14353;46.070;13.222;2023-08-30T04:57:16;28.60;48.50
23377;DHT22;14353;46.070;13.222;2023-08-30T04:59:44;28.60;48.50
23377;DHT22;14353;46.070;13.222;2023-08-30T05:02:10;28.60;48.50
23377;DHT22;14353;46.070;13.222;2023-08-30T05:04:36;28.60;48.50
23377;DHT22;14353;46.070;13.222;2023-08-30T05:07:02;28.60;48.50
23377;DHT22;14353;46.070;13.222;2023-08-30T05:09:30;28.60;48.50
23377;DHT22;14353;46.070;13.222;2023-08-30T05:11:56;28.60;48.50
23377;DHT22;14353;46.070;13.222;2023-08-30T05:14:22;28.60;48.50
23377;DHT22;14353;46.070;13.222;2023-08-30T05:16:49;28.60;49.20
23377;DHT22;14353;46.070;13.222;2023-08-30T05:19:15;28.50;48.50
23377;DHT22;14353;46.070;13.222;2023-08-30T05:21:45;28.60;48.50
23377;DHT22;14353;46.070;13.222;2023-08-30T05:24:11;28.60;48.50
23377;DHT22;14353;46.070;13.222;2023-08-30T05:26:37;28.50;48.50
23377;DHT22;14353;46.070;13.222;2023-08-30T05:29:03;28.60;48.60
23377;DHT22;14353;46.070;13.222;2023-08-30T05:31:29;28.60;48.50
23377;DHT22;14353;46.070;13.222;2023-08-30T05:33:55;28.50;48.50
23377;DHT22;14353;46.070;13.222;2023-08-30T05:36:20;28.60;48.60
23377;DHT22;14353;46.070;13.222;2023-08-30T05:38:46;28.60;48.50
23377;DHT22;14353;46.070;13.222;2023-08-30T05:41:12;28.50;48.50
23377;DHT22;14353;46.070;13.222;2023-08-30T05:43:38;28.60;48.60
23377;DHT22;14353;46.070;13.222;2023-08-30T05:46:03;28.60;48.60
23377;DHT22;14353;46.070;13.222;2023-08-30T05:48:30;28.60;48.60
23377;DHT22;14353;46.070;13.222;2023-08-30T05:50:56;28.60;48.60
23377;DHT22;14353;46.070;13.222;2023-08-30T05:53:22;28.60;48.60
23377;DHT22;14353;46.070;13.222;2023-08-30T05:55:48;28.60;48.50
23377;DHT22;14353;46.070;13.222;2023-08-30T05:58:13;28.60;48.60
23377;DHT22;14353;46.070;13.222;2023-08-30T06:00:41;28.60;48.60
23377;DHT22;14353;46.070;13.222;2023-08-30T06:03:06;28.60;48.60
23377;DHT22;14353;46.070;13.222;2023-08-30T06:05:33;28.50;48.60
23377;DHT22;14353;46.070;13.222;2023-08-30T06:07:59;28.60;48.70
23377;DHT22;14353;46.070;13.222;2023-08-30T06:10:25;28.50;48.70
23377;DHT22;14353;46.070;13.222;2023-08-30T06:12:50;28.50;48.60
23377;DHT22;14353;46.070;13.222;2023-08-30T06:15:16;28.50;48.70
23377;DHT22;14353;46.070;13.222;2023-08-30T06:17:42;28.50;48.70
23377;DHT22;14353;46.070;13.222;2023-08-30T06:20:08;28.50;48.70
23377;DHT22;14353;46.070;13.222;2023-08-30T06:22:34;28.50;48.80
23377;DHT22;14353;46.070;13.222;2023-08-30T06:25:00;28.50;48.70
23377;DHT22;14353;46.070;13.222;2023-08-30T06:27:26;28.50;48.80
23377;DHT22;14353;46.070;13.222;2023-08-30T06:29:51;28.50;48.80
23377;DHT22;14353;46.070;13.222;2023-08-30T06:32:17;28.50;48.80
23377;DHT22;14353;46.070;13.222;2023-08-30T06:34:43;28.50;48.80
23377;DHT22;14353;46.070;13.222;2023-08-30T06:37:09;28.50;48.80
23377;DHT22;14353;46.070;13.222;2023-08-30T06:39:35;28.40;48.80
23377;DHT22;14353;46.070;13.222;2023-08-30T06:42:02;28.50;48.90
23377;DHT22;14353;46.070;13.222;2023-08-30T06:44:28;28.50;48.90
23377;DHT22;14353;46.070;13.222;2023-08-30T06:46:56;28.50;48.90
23377;DHT22;14353;46.070;13.222;2023-08-30T06:49:22;28.40;48.90
23377;DHT22;14353;46.070;13.222;2023-08-30T06:51:47;28.50;49.00
23377;DHT22;14353;46.070;13.222;2023-08-30T06:54:13;28.40;48.90
23377;DHT22;14353;46.070;13.222;2023-08-30T06:56:39;28.50;49.00
23377;DHT22;14353;46.070;13.222;2023-08-30T06:59:05;28.40;49.00
23377;DHT22;14353;46.070;13.222;2023-08-30T07:01:31;28.40;49.00
23377;DHT22;14353;46.070;13.222;2023-08-30T07:03:57;28.40;49.00
23377;DHT22;14353;46.070;13.222;2023-08-30T07:06:22;28.40;49.00
23377;DHT22;14353;46.070;13.222;2023-08-30T07:08:48;28.40;49.00
23377;DHT22;14353;46.070;13.222;2023-08-30T07:11:14;28.40;49.00
23377;DHT22;14353;46.070;13.222;2023-08-30T07:13:40;28.40;49.00
23377;DHT22;14353;46.070;13.222;2023-08-30T07:16:05;28.40;49.00
23377;DHT22;14353;46.070;13.222;2023-08-30T07:18:31;28.40;49.00
23377;DHT22;14353;46.070;13.222;2023-08-30T07:20:57;28.40;49.00
23377;DHT22;14353;46.070;13.222;2023-08-30T07:23:22;28.40;49.00
23377;DHT22;14353;46.070;13.222;2023-08-30T07:25:48;28.40;49.00
23377;DHT22;14353;46.070;13.222;2023-08-30T07:28:14;28.40;49.00
23377;DHT22;14353;46.070;13.222;2023-08-30T07:30:39;28.40;49.00
23377;DHT22;14353;46.070;13.222;2023-08-30T07:33:05;28.40;49.00
23377;DHT22;14353;46.070;13.222;2023-08-30T07:35:32;28.40;48.90
23377;DHT22;14353;46.070;13.222;2023-08-30T07:37:58;28.40;48.90
23377;DHT22;14353;46.070;13.222;2023-08-30T07:40:23;28.40;49.00
23377;DHT22;14353;46.070;13.222;2023-08-30T07:42:52;28.40;49.30
23377;DHT22;14353;46.070;13.222;2023-08-30T07:45:18;28.40;49.30
23377;DHT22;14353;46.070;13.222;2023-08-30T07:47:44;28.40;49.30
23377;DHT22;14353;46.070;13.222;2023-08-30T07:50:09;28.40;49.20
23377;DHT22;14353;46.070;13.222;2023-08-30T07:52:35;28.40;49.20
23377;DHT22;14353;46.070;13.222;2023-08-30T07:55:01;28.40;49.30
23377;DHT22;14353;46.070;13.222;2023-08-30T07:57:27;28.30;49.30
23377;DHT22;14353;46.070;13.222;2023-08-30T07:59:53;28.30;49.30
23377;DHT22;14353;46.070;13.222;2023-08-30T08:02:18;28.30;49.30
23377;DHT22;14353;46.070;13.222;2023-08-30T08:04:44;28.30;49.30
23377;DHT22;14353;46.070;13.222;2023-08-30T08:07:10;28.30;49.30
23377;DHT22;14353;46.070;13.222;2023-08-30T08:09:35;28.30;49.30
23377;DHT22;14353;46.070;13.222;2023-08-30T08:12:03;28.30;49.30
23377;DHT22;14353;46.070;13.222;2023-08-30T08:14:29;28.30;49.10
23377;DHT22;14353;46.070;13.222;2023-08-30T08:16:54;28.30;49.30
23377;DHT22;14353;46.070;13.222;2023-08-30T08:19:20;28.20;49.40
23377;DHT22;14353;46.070;13.222;2023-08-30T08:21:47;28.20;49.20
23377;DHT22;14353;46.070;13.222;2023-08-30T08:24:13;28.20;49.30
23377;DHT22;14353;46.070;13.222;2023-08-30T08:26:39;28.20;49.20
23377;DHT22;14353;46.070;13.222;2023-08-30T08:29:05;28.20;49.10
23377;DHT22;14353;46.070;13.222;2023-08-30T08:31:30;28.20;49.10
23377;DHT22;14353;46.070;13.222;2023-08-30T08:34:09;28.20;49.10
23377;DHT22;14353;46.070;13.222;2023-08-30T08:36:36;28.20;49.10
23377;DHT22;14353;46.070;13.222;2023-08-30T08:39:03;28.20;49.00
23377;DHT22;14353;46.070;13.222;2023-08-30T08:41:38;28.10;49.10
23377;DHT22;14353;46.070;13.222;2023-08-30T08:44:05;28.10;49.10
23377;DHT22;14353;46.070;13.222;2023-08-30T08:46:32;28.10;49.10
23377;DHT22;14353;46.070;13.222;2023-08-30T08:48:59;28.10;49.10
23377;DHT22;14353;46.070;13.222;2023-08-30T08:51:26;28.10;49.00
23377;DHT22;14353;46.070;13.222;2023-08-30T08:53:53;28.10;48.80
23377;DHT22;14353;46.070;13.222;2023-08-30T08:56:20;28.10;48.90
23377;DHT22;14353;46.070;13.222;2023-08-30T08:58:47;28.10;49.00
23377;DHT22;14353;46.070;13.222;2023-08-30T09:01:14;28.10;49.20
23377;DHT22;14353;46.070;13.222;2023-08-30T09:03:40;28.10;49.30
23377;DHT22;14353;46.070;13.222;2023-08-30T09:06:06;28.10;49.20
23377;DHT22;14353;46.070;13.222;2023-08-30T09:08:31;28.10;49.30
23377;DHT22;14353;46.070;13.222;2023-08-30T09:10:57;28.10;49.40
23377;DHT22;14353;46.070;13.222;2023-08-30T09:13:23;28.10;49.50
23377;DHT22;14353;46.070;13.222;2023-08-30T09:15:48;28.00;49.40
23377;DHT22;14353;46.070;13.222;2023-08-30T09:18:18;28.00;49.40
23377;DHT22;14353;46.070;13.222;2023-08-30T09:20:44;28.00;49.40
23377;DHT22;14353;46.070;13.222;2023-08-30T09:23:20;28.00;49.40
23377;DHT22;14353;46.070;13.222;2023-08-30T09:25:46;28.00;49.50
23377;DHT22;14353;46.070;13.222;2023-08-30T09:28:12;28.00;49.50
23377;DHT22;14353;46.070;13.222;2023-08-30T09:30:39;28.00;49.40
23377;DHT22;14353;46.070;13.222;2023-08-30T09:33:05;28.00;49.30
23377;DHT22;14353;46.070;13.222;2023-08-30T09:35:31;28.00;49.30
23377;DHT22;14353;46.070;13.222;2023-08-30T09:37:57;28.00;49.30
23377;DHT22;14353;46.070;13.222;2023-08-30T09:40:23;28.00;49.40
23377;DHT22;14353;46.070;13.222;2023-08-30T09:42:49;28.00;49.40
23377;DHT22;14353;46.070;13.222;2023-08-30T09:45:18;28.00;49.40
23377;DHT22;14353;46.070;13.222;2023-08-30T09:47:51;28.00;49.30
23377;DHT22;14353;46.070;13.222;2023-08-30T09:50:19;28.00;49.30
23377;DHT22;14353;46.070;13.222;2023-08-30T09:52:48;28.00;49.40
23377;DHT22;14353;46.070;13.222;2023-08-30T09:55:18;28.00;49.40
23377;DHT22;14353;46.070;13.222;2023-08-30T09:57:44;28.00;49.40
23377;DHT22;14353;46.070;13.222;2023-08-30T10:00:11;28.00;49.40
23377;DHT22;14353;46.070;13.222;2023-08-30T10:02:41;28.00;49.50
23377;DHT22;14353;46.070;13.222;2023-08-30T10:05:09;28.00;49.40
23377;DHT22;14353;46.070;13.222;2023-08-30T10:07:44;28.00;49.50
23377;DHT22;14353;46.070;13.222;2023-08-30T10:10:11;28.00;49.40
23377;DHT22;14353;46.070;13.222;2023-08-30T10:12:39;28.00;49.30
23377;DHT22;14353;46.070;13.222;2023-08-30T10:15:06;28.00;49.40
23377;DHT22;14353;46.070;13.222;2023-08-30T10:17:32;28.00;49.30
23377;DHT22;14353;46.070;13.222;2023-08-30T10:20:04;28.00;49.10
23377;DHT22;14353;46.070;13.222;2023-08-30T10:22:33;28.00;49.10
23377;DHT22;14353;46.070;13.222;2023-08-30T10:25:03;28.00;49.10
23377;DHT22;14353;46.070;13.222;2023-08-30T10:27:31;28.00;49.20
23377;DHT22;14353;46.070;13.222;2023-08-30T10:30:00;28.00;49.20
23377;DHT22;14353;46.070;13.222;2023-08-30T10:32:27;28.00;49.30
23377;DHT22;14353;46.070;13.222;2023-08-30T10:34:52;28.00;49.30
23377;DHT22;14353;46.070;13.222;2023-08-30T10:37:26;28.00;49.40
23377;DHT22;14353;46.070;13.222;2023-08-30T10:39:53;28.00;49.50
23377;DHT22;14353;46.070;13.222;2023-08-30T10:42:23;28.00;49.50
23377;DHT22;14353;46.070;13.222;2023-08-30T10:44:57;28.00;49.50
23377;DHT22;14353;46.070;13.222;2023-08-30T10:47:26;28.00;49.40
23377;DHT22;14353;46.070;13.222;2023-08-30T10:49:57;28.00;49.30
23377;DHT22;14353;46.070;13.222;2023-08-30T10:52:25;28.10;49.20
23377;DHT22;14353;46.070;13.222;2023-08-30T10:54:51;28.10;49.10
23377;DHT22;14353;46.070;13.222;2023-08-30T10:57:26;28.10;49.00
23377;DHT22;14353;46.070;13.222;2023-08-30T11:00:24;28.10;48.90
23377;DHT22;14353;46.070;13.222;2023-08-30T11:02:51;28.10;48.70
23377;DHT22;14353;46.070;13.222;2023-08-30T11:05:18;27.70;47.50
23377;DHT22;14353;46.070;13.222;2023-08-30T11:07:45;27.00;48.20
23377;DHT22;14353;46.070;13.222;2023-08-30T11:10:11;26.60;51.20
23377;DHT22;14353;46.070;13.222;2023-08-30T11:12:40;26.50;51.10
23377;DHT22;14353;46.070;13.222;2023-08-30T11:15:07;26.50;51.60
23377;DHT22;14353;46.070;13.222;2023-08-30T11:17:34;26.70;51.60
23377;DHT22;14353;46.070;13.222;2023-08-30T11:20:07;26.80;50.90
23377;DHT22;14353;46.070;13.222;2023-08-30T11:22:38;26.70;51.30
23377;DHT22;14353;46.070;13.222;2023-08-30T11:25:05;26.60;51.50
23377;DHT22;14353;46.070;13.222;2023-08-30T11:27:31;26.40;51.90
23377;DHT22;14353;46.070;13.222;2023-08-30T11:30:01;26.40;53.00
23377;DHT22;14353;46.070;13.222;2023-08-30T11:32:40;26.10;53.00
23377;DHT22;14353;46.070;13.222;2023-08-30T11:35:08;25.70;54.00
23377;DHT22;14353;46.070;13.222;2023-08-30T11:37:34;25.60;54.50
23377;DHT22;14353;46.070;13.222;2023-08-30T11:40:02;25.80;54.40
23377;DHT22;14353;46.070;13.222;2023-08-30T11:42:30;26.00;53.90
23377;DHT22;14353;46.070;13.222;2023-08-30T11:44:58;26.00;54.60
23377;DHT22;14353;46.070;13.222;2023-08-30T11:47:25;25.60;55.10
23377;DHT22;14353;46.070;13.222;2023-08-30T11:49:58;25.40;55.80
23377;DHT22;14353;46.070;13.222;2023-08-30T11:52:25;25.50;56.20
23377;DHT22;14353;46.070;13.222;2023-08-30T11:54:51;25.60;55.50
23377;DHT22;14353;46.070;13.222;2023-08-30T11:57:17;25.90;54.80
23377;DHT22;14353;46.070;13.222;2023-08-30T11:59:43;26.20;54.40
23377;DHT22;14353;46.070;13.222;2023-08-30T12:02:11;26.50;53.80
23377;DHT22;14353;46.070;13.222;2023-08-30T12:04:42;26.50;53.40
23377;DHT22;14353;46.070;13.222;2023-08-30T12:07:08;26.70;53.50
23377;DHT22;14353;46.070;13.222;2023-08-30T12:09:34;26.70;53.30
23377;DHT22;14353;46.070;13.222;2023-08-30T12:12:12;26.80;53.20
23377;DHT22;14353;46.070;13.222;2023-08-30T12:14:38;26.90;53.00
23377;DHT22;14353;46.070;13.222;2023-08-30T12:17:05;27.10;52.70
23377;DHT22;14353;46.070;13.222;2023-08-30T12:19:33;27.20;52.50
23377;DHT22;14353;46.070;13.222;2023-08-30T12:22:08;27.30;52.40
23377;DHT22;14353;46.070;13.222;2023-08-30T12:24:44;27.30;52.10
23377;DHT22;14353;46.070;13.222;2023-08-30T12:27:10;27.40;52.00
23377;DHT22;14353;46.070;13.222;2023-08-30T12:29:36;27.50;51.80
23377;DHT22;14353;46.070;13.222;2023-08-30T12:32:01;27.50;51.70
23377;DHT22;14353;46.070;13.222;2023-08-30T12:34:27;27.50;51.50
23377;DHT22;14353;46.070;13.222;2023-08-30T12:36:53;27.60;51.50
23377;DHT22;14353;46.070;13.222;2023-08-30T12:39:19;27.60;51.40
23377;DHT22;14353;46.070;13.222;2023-08-30T12:41:44;27.60;51.20
23377;DHT22;14353;46.070;13.222;2023-08-30T12:44:10;27.60;51.20
23377;DHT22;14353;46.070;13.222;2023-08-30T12:46:36;27.60;51.20
23377;DHT22;14353;46.070;13.222;2023-08-30T12:49:02;27.60;51.20
23377;DHT22;14353;46.070;13.222;2023-08-30T12:51:27;27.60;51.10
23377;DHT22;14353;46.070;13.222;2023-08-30T12:53:54;27.60;51.00
23377;DHT22;14353;46.070;13.222;2023-08-30T12:56:20;27.70;51.10
23377;DHT22;14353;46.070;13.222;2023-08-30T12:58:45;27.70;51.10
23377;DHT22;14353;46.070;13.222;2023-08-30T13:01:11;27.70;51.00
23377;DHT22;14353;46.070;13.222;2023-08-30T13:03:37;27.70;51.00
23377;DHT22;14353;46.070;13.222;2023-08-30T13:06:03;27.70;51.00
23377;DHT22;14353;46.070;13.222;2023-08-30T13:08:29;27.70;51.00
23377;DHT22;14353;46.070;13.222;2023-08-30T13:10:55;27.70;51.00
23377;DHT22;14353;46.070;13.222;2023-08-30T13:13:21;27.70;51.00
23377;DHT22;14353;46.070;13.222;2023-08-30T13:15:47;27.70;51.00
23377;DHT22;14353;46.070;13.222;2023-08-30T13:18:14;27.70;51.00
23377;DHT22;14353;46.070;13.222;2023-08-30T13:20:41;27.70;50.90
23377;DHT22;14353;46.070;13.222;2023-08-30T13:23:07;27.70;50.90
23377;DHT22;14353;46.070;13.222;2023-08-30T13:25:33;27.70;50.90
23377;DHT22;14353;46.070;13.222;2023-08-30T13:27:59;27.70;50.90
23377;DHT22;14353;46.070;13.222;2023-08-30T13:30:24;27.70;50.90
23377;DHT22;14353;46.070;13.222;2023-08-30T13:32:50;27.80;51.00
23377;DHT22;14353;46.070;13.222;2023-08-30T13:35:15;27.70;51.10
23377;DHT22;14353;46.070;13.222;2023-08-30T13:37:41;27.70;51.10
23377;DHT22;14353;46.070;13.222;2023-08-30T13:40:07;27.70;51.00
23377;DHT22;14353;46.070;13.222;2023-08-30T13:42:33;27.70;51.10
23377;DHT22;14353;46.070;13.222;2023-08-30T13:44:59;27.80;51.20
23377;DHT22;14353;46.070;13.222;2023-08-30T13:47:25;27.80;51.20
23377;DHT22;14353;46.070;13.222;2023-08-30T13:49:51;27.80;51.20
23377;DHT22;14353;46.070;13.222;2023-08-30T13:52:17;27.80;51.20
23377;DHT22;14353;46.070;13.222;2023-08-30T13:54:43;27.80;51.20
23377;DHT22;14353;46.070;13.222;2023-08-30T13:57:09;27.80;51.20
23377;DHT22;14353;46.070;13.222;2023-08-30T13:59:34;27.80;51.10
23377;DHT22;14353;46.070;13.222;2023-08-30T14:02:02;27.80;51.00
23377;DHT22;14353;46.070;13.222;2023-08-30T14:04:29;27.80;51.00
23377;DHT22;14353;46.070;13.222;2023-08-30T14:06:57;27.80;51.00
23377;DHT22;14353;46.070;13.222;2023-08-30T14:09:23;27.80;50.90
23377;DHT22;14353;46.070;13.222;2023-08-30T14:11:49;27.80;50.90
23377;DHT22;14353;46.070;13.222;2023-08-30T14:14:15;27.80;50.80
23377;DHT22;14353;46.070;13.222;2023-08-30T14:16:41;27.80;50.80
23377;DHT22;14353;46.070;13.222;2023-08-30T14:19:06;27.80;50.80
23377;DHT22;14353;46.070;13.222;2023-08-30T14:21:33;27.80;50.80
23377;DHT22;14353;46.070;13.222;2023-08-30T14:23:58;27.80;50.70
23377;DHT22;14353;46.070;13.222;2023-08-30T14:26:25;27.80;50.70
23377;DHT22;14353;46.070;13.222;2023-08-30T14:28:51;27.80;50.70
23377;DHT22;14353;46.070;13.222;2023-08-30T14:31:16;27.90;50.70
23377;DHT22;14353;46.070;13.222;2023-08-30T14:33:43;27.90;50.70
23377;DHT22;14353;46.070;13.222;2023-08-30T14:36:13;27.90;50.70
23377;DHT22;14353;46.070;13.222;2023-08-30T14:38:38;27.90;50.60
23377;DHT22;14353;46.070;13.222;2023-08-30T14:41:06;27.90;50.60
23377;DHT22;14353;46.070;13.222;2023-08-30T14:43:32;27.90;50.50
23377;DHT22;14353;46.070;13.222;2023-08-30T14:46:02;27.90;50.50
23377;DHT22;14353;46.070;13.222;2023-08-30T14:48:28;27.90;50.50
23377;DHT22;14353;46.070;13.222;2023-08-30T14:50:54;27.90;50.50
23377;DHT22;14353;46.070;13.222;2023-08-30T14:53:20;27.90;50.40
23377;DHT22;14353;46.070;13.222;2023-08-30T14:55:46;27.90;50.40
23377;DHT22;14353;46.070;13.222;2023-08-30T14:58:12;27.90;50.30
23377;DHT22;14353;46.070;13.222;2023-08-30T15:00:38;27.90;50.30
23377;DHT22;14353;46.070;13.222;2023-08-30T15:03:04;27.90;50.30
23377;DHT22;14353;46.070;13.222;2023-08-30T15:05:30;27.90;50.30
23377;DHT22;14353;46.070;13.222;2023-08-30T15:07:55;27.90;50.30
23377;DHT22;14353;46.070;13.222;2023-08-30T15:10:21;27.90;50.20
23377;DHT22;14353;46.070;13.222;2023-08-30T15:12:47;27.90;50.20